createdAt,value
2019-01-17T00:02:48.806Z,5.33
2019-01-17T00:05:38.253Z,4.63
2019-01-17T00:08:25.789Z,4.70
2019-01-17T00:11:25.251Z,5.00
2019-01-17T00:14:07.299Z,5.63
2019-01-17T00:16:49.247Z,6.17
2019-01-17T00:19:55.180Z,6.27
2019-01-17T00:22:53.134Z,7.97
2019-01-17T00:25:41.390Z,7.27
2019-01-17T00:28:34.903Z,8.17
2019-01-17T00:31:21.126Z,7.13
2019-01-17T00:34:26.769Z,7.60
2019-01-17T00:37:17.346Z,7.37
2019-01-17T00:40:23.208Z,7.90
2019-01-17T00:43:06.883Z,7.70
2019-01-17T00:45:53.133Z,7.37
2019-01-17T00:48:41.453Z,7.93
2019-01-17T00:51:49.969Z,8.30
2019-01-17T00:54:46.240Z,7.20
2019-01-17T00:57:52.910Z,6.73
2019-01-17T01:00:48.488Z,6.40
2019-01-17T01:03:34.282Z,6.17
2019-01-17T01:06:29.638Z,5.60
2019-01-17T01:09:19.080Z,5.40
2019-01-17T01:12:18.602Z,4.90
2019-01-17T01:15:13.675Z,4.57
2019-01-17T01:18:02.666Z,4.80
2019-01-17T01:20:48.290Z,4.40
2019-01-17T01:23:44.451Z,4.50
2019-01-17T01:26:40.854Z,4.40
2019-01-17T01:29:31.168Z,3.83
2019-01-17T01:32:20.519Z,4.60
2019-01-17T01:35:00.189Z,4.93
2019-01-17T01:37:51.197Z,5.30
2019-01-17T01:40:40.607Z,5.27
2019-01-17T01:43:29.840Z,5.50
2019-01-17T01:46:19.103Z,5.40
2019-01-17T01:49:09.374Z,6.03
2019-01-17T01:52:01.245Z,6.07
2019-01-17T01:54:32.811Z,5.93
2019-01-17T01:57:04.332Z,6.87
2019-01-17T01:59:35.690Z,6.93
2019-01-17T02:02:07.002Z,7.27
2019-01-17T02:04:39.729Z,8.03
2019-01-17T02:07:11.426Z,7.10
2019-01-17T02:09:42.853Z,8.77
2019-01-17T02:12:14.196Z,8.83
2019-01-17T02:14:46.582Z,9.00
2019-01-17T02:17:18.336Z,9.83
2019-01-17T02:19:50.422Z,9.80
2019-01-17T02:22:22.061Z,10.10
2019-01-17T02:24:57.361Z,10.53
2019-01-17T02:27:29.694Z,11.13
2019-01-17T02:30:01.478Z,10.23
2019-01-17T02:32:33.743Z,11.10
2019-01-17T02:35:05.887Z,11.20
2019-01-17T02:37:39.294Z,10.43
2019-01-17T02:40:12.421Z,10.47
2019-01-17T02:42:43.846Z,11.10
2019-01-17T02:45:16.297Z,11.50
2019-01-17T02:47:48.241Z,11.80
2019-01-17T02:50:19.624Z,12.50
2019-01-17T02:52:51.113Z,12.80
2019-01-17T02:55:23.161Z,12.17
2019-01-17T02:57:54.600Z,12.50
2019-01-17T03:00:27.888Z,12.80
2019-01-17T03:02:59.781Z,11.50
2019-01-17T03:05:33.287Z,11.97
2019-01-17T03:08:04.838Z,11.67
2019-01-17T03:10:37.337Z,12.43
2019-01-17T03:13:09.685Z,12.27
2019-01-17T03:15:42.103Z,11.93
2019-01-17T03:18:13.722Z,13.83
2019-01-17T03:20:45.109Z,13.20
2019-01-17T03:23:16.589Z,13.27
2019-01-17T03:25:48.191Z,12.87
2019-01-17T03:28:20.861Z,13.30
2019-01-17T03:30:52.725Z,13.80
2019-01-17T03:33:24.672Z,14.30
2019-01-17T03:35:56.170Z,13.33
2019-01-17T03:38:27.662Z,13.97
2019-01-17T03:40:59.084Z,13.57
2019-01-17T03:43:30.887Z,13.97
2019-01-17T03:46:02.931Z,13.93
2019-01-17T03:48:34.307Z,13.30
2019-01-17T03:51:05.969Z,13.63
2019-01-17T03:53:37.461Z,13.47
2019-01-17T03:56:09.596Z,13.83
2019-01-17T03:58:41.548Z,12.83
2019-01-17T04:01:13.285Z,14.23
2019-01-17T04:03:46.802Z,13.93
2019-01-17T04:06:18.275Z,14.93
2019-01-17T04:08:52.746Z,14.90
2019-01-17T04:11:24.269Z,15.27
2019-01-17T04:13:57.913Z,15.33
2019-01-17T04:16:29.242Z,15.17
2019-01-17T04:19:02.468Z,15.30
2019-01-17T04:21:34.200Z,14.00
2019-01-17T04:24:06.176Z,14.97
2019-01-17T04:26:38.554Z,15.73
2019-01-17T04:29:11.426Z,13.87
2019-01-17T04:31:43.070Z,14.87
2019-01-17T04:34:16.023Z,14.40
2019-01-17T04:36:47.722Z,14.07
2019-01-17T04:39:19.586Z,14.77
2019-01-17T04:41:51.006Z,15.13
2019-01-17T04:44:24.310Z,14.43
2019-01-17T04:46:56.372Z,14.03
2019-01-17T04:49:27.800Z,13.50
2019-01-17T04:51:59.240Z,13.73
2019-01-17T04:54:30.587Z,12.93
2019-01-17T04:57:02.328Z,13.23
2019-01-17T04:59:34.089Z,12.80
2019-01-17T05:02:05.578Z,13.33
2019-01-17T05:04:37.085Z,13.60
2019-01-17T05:07:08.869Z,13.17
2019-01-17T05:09:40.299Z,14.07
2019-01-17T05:12:13.586Z,13.60
2019-01-17T05:14:45.164Z,12.63
2019-01-17T05:17:16.705Z,13.37
2019-01-17T05:19:48.187Z,12.67
2019-01-17T05:22:19.631Z,12.70
2019-01-17T05:24:51.179Z,13.47
2019-01-17T05:27:22.714Z,12.23
2019-01-17T05:29:54.083Z,11.53
2019-01-17T05:32:26.148Z,12.17
2019-01-17T05:34:57.828Z,10.93
2019-01-17T05:37:29.459Z,10.57
2019-01-17T05:40:03.267Z,9.97
2019-01-17T05:42:34.739Z,9.50
2019-01-17T05:45:07.191Z,8.83
2019-01-17T05:47:38.913Z,8.27
2019-01-17T05:50:13.132Z,7.53
2019-01-17T05:52:46.115Z,7.03
2019-01-17T05:55:19.985Z,12.23
2019-01-17T05:57:51.713Z,6.20
2019-01-17T06:00:23.529Z,5.20
2019-01-17T06:02:55.195Z,5.17
2019-01-17T06:05:27.457Z,4.30
2019-01-17T06:07:58.767Z,4.50
2019-01-17T06:10:30.210Z,3.80
2019-01-17T06:13:01.856Z,3.50
2019-01-17T06:15:33.750Z,3.30
2019-01-17T06:18:05.980Z,3.30
2019-01-17T06:20:37.493Z,2.90
2019-01-17T06:23:10.310Z,2.97
2019-01-17T06:25:41.983Z,3.37
2019-01-17T06:28:13.863Z,3.07
2019-01-17T06:30:45.830Z,4.30
2019-01-17T06:33:18.344Z,2.80
2019-01-17T06:35:51.803Z,2.73
2019-01-17T06:38:23.887Z,2.60
2019-01-17T06:40:55.575Z,2.33
2019-01-17T06:43:27.239Z,2.17
2019-01-17T06:45:59.190Z,2.30
2019-01-17T06:48:30.656Z,1.87
2019-01-17T06:51:02.247Z,1.93
2019-01-17T06:53:33.772Z,1.60
2019-01-17T06:56:05.486Z,1.80
2019-01-17T06:58:36.968Z,1.90
2019-01-17T07:01:08.502Z,1.50
2019-01-17T07:03:39.940Z,1.33
2019-01-17T07:06:11.406Z,1.40
2019-01-17T07:08:43.218Z,1.30
2019-01-17T07:11:16.106Z,1.60
2019-01-17T07:13:47.601Z,1.30
2019-01-17T07:16:19.193Z,1.67
2019-01-17T07:18:50.956Z,1.83
2019-01-17T07:21:22.266Z,3.00
2019-01-17T07:23:56.932Z,2.80
2019-01-17T07:26:29.215Z,2.30
2019-01-17T07:29:02.191Z,2.37
2019-01-17T07:31:33.749Z,2.80
2019-01-17T07:34:06.513Z,2.93
2019-01-17T07:36:38.470Z,3.13
2019-01-17T07:39:09.947Z,3.40
2019-01-17T07:41:41.833Z,3.57
2019-01-17T07:44:13.352Z,3.23
2019-01-17T07:46:46.663Z,3.40
2019-01-17T07:49:18.431Z,3.20
2019-01-17T07:51:50.057Z,3.10
2019-01-17T07:54:21.955Z,2.87
2019-01-17T07:56:55.288Z,3.00
2019-01-17T07:59:27.337Z,2.73
2019-01-17T08:01:59.149Z,2.47
2019-01-17T08:04:30.522Z,2.30
2019-01-17T08:07:02.130Z,2.10
2019-01-17T08:09:34.321Z,2.80
2019-01-17T08:12:06.322Z,2.10
2019-01-17T08:14:38.392Z,2.20
2019-01-17T08:17:10.627Z,2.10
2019-01-17T08:19:45.069Z,2.30
2019-01-17T08:22:18.341Z,2.57
2019-01-17T08:24:50.134Z,3.03
2019-01-17T08:27:22.263Z,3.17
2019-01-17T08:29:54.209Z,3.67
2019-01-17T08:32:25.714Z,3.60
2019-01-17T08:34:57.375Z,4.07
2019-01-17T08:37:28.893Z,3.53
2019-01-17T08:40:00.603Z,4.03
2019-01-17T08:42:32.259Z,4.00
2019-01-17T08:45:03.909Z,4.07
2019-01-17T08:47:37.323Z,4.10
2019-01-17T08:50:10.388Z,3.80
2019-01-17T08:52:43.192Z,3.97
2019-01-17T08:55:15.944Z,4.30
2019-01-17T08:57:47.826Z,4.40
2019-01-17T09:00:22.180Z,4.63
2019-01-17T09:02:54.034Z,4.57
2019-01-17T09:05:25.761Z,4.80
2019-01-17T09:07:57.619Z,3.70
2019-01-17T09:10:30.970Z,3.60
2019-01-17T09:13:03.375Z,3.93
2019-01-17T09:15:36.031Z,4.00
2019-01-17T09:18:07.651Z,3.70
2019-01-17T09:20:39.668Z,3.60
2019-01-17T09:23:13.131Z,3.67
2019-01-17T09:25:45.669Z,3.30
2019-01-17T09:28:18.578Z,3.67
2019-01-17T09:30:50.272Z,3.80
2019-01-17T09:33:21.917Z,3.87
2019-01-17T09:38:33.978Z,4.20
2019-01-17T09:41:05.591Z,4.60
2019-01-17T09:43:38.074Z,4.10
2019-01-17T09:46:09.740Z,4.37
2019-01-17T09:48:41.814Z,4.37
2019-01-17T09:51:13.370Z,3.53
2019-01-17T09:53:44.887Z,3.70
2019-01-17T09:56:17.569Z,3.30
2019-01-17T09:58:49.836Z,2.83
2019-01-17T10:01:22.199Z,2.30
2019-01-17T10:03:53.696Z,1.23
2019-01-17T10:06:25.510Z,1.17
2019-01-17T10:08:57.354Z,0.97
2019-01-17T10:11:30.394Z,1.17
2019-01-17T10:14:02.223Z,1.07
2019-01-17T10:17:02.680Z,1.00
2019-01-17T10:20:15.957Z,1.10
2019-01-17T10:23:33.381Z,1.10
2019-01-17T10:26:41.947Z,1.17
2019-01-17T10:29:44.080Z,1.27
2019-01-17T10:32:47.452Z,1.10
2019-01-17T10:35:50.681Z,1.20
2019-01-17T10:38:31.612Z,0.97
2019-01-17T10:41:56.451Z,1.10
2019-01-17T10:45:23.113Z,0.80
2019-01-17T10:48:36.959Z,1.00
2019-01-17T10:51:50.134Z,1.10
2019-01-17T10:55:18.859Z,0.90
2019-01-17T10:58:08.990Z,0.80
2019-01-17T11:01:09.594Z,1.13
2019-01-17T11:04:33.373Z,1.30
2019-01-17T11:07:32.075Z,1.27
2019-01-17T11:10:37.054Z,1.27
2019-01-17T11:13:53.055Z,1.10
2019-01-17T11:16:51.964Z,1.20
2019-01-17T11:19:58.470Z,1.00
2019-01-17T11:23:13.799Z,1.70
2019-01-17T11:25:53.725Z,1.90
2019-01-17T11:29:12.260Z,1.50
2019-01-17T11:32:08.081Z,1.07
2019-01-17T11:35:12.440Z,1.83
2019-01-17T11:38:03.116Z,1.80
2019-01-17T11:41:31.067Z,1.60
2019-01-17T11:44:42.190Z,1.40
2019-01-17T11:47:46.153Z,1.70
2019-01-17T11:50:25.604Z,2.07
2019-01-17T11:53:35.107Z,2.27
2019-01-17T11:56:41.079Z,1.83
2019-01-17T11:59:39.845Z,1.60
2019-01-17T12:02:39.112Z,1.57
2019-01-17T12:05:07.601Z,1.93
2019-01-17T12:07:39.612Z,1.87
2019-01-17T12:10:14.153Z,2.17
2019-01-17T12:12:45.869Z,2.33
2019-01-17T12:15:17.505Z,1.70
2019-01-17T12:17:51.206Z,2.10
2019-01-17T12:20:23.048Z,2.23
2019-01-17T12:22:54.666Z,2.40
2019-01-17T12:25:26.770Z,2.00
2019-01-17T12:27:58.799Z,2.60
2019-01-17T12:30:32.361Z,1.97
2019-01-17T12:33:04.287Z,2.33
2019-01-17T12:35:35.816Z,2.03
2019-01-17T12:38:07.504Z,2.33
2019-01-17T12:40:39.907Z,2.50
2019-01-17T12:43:12.009Z,2.00
2019-01-17T12:45:45.966Z,1.57
2019-01-17T12:48:21.079Z,1.87
2019-01-17T12:50:53.357Z,1.20
2019-01-17T12:53:24.995Z,1.40
2019-01-17T12:55:56.854Z,1.60
2019-01-17T12:58:30.733Z,1.00
2019-01-17T13:01:02.715Z,1.20
2019-01-17T13:03:34.864Z,1.23
2019-01-17T13:06:06.972Z,0.90
2019-01-17T13:08:39.093Z,1.43
2019-01-17T13:11:10.700Z,1.03
2019-01-17T13:13:42.309Z,1.10
2019-01-17T13:16:13.841Z,1.20
2019-01-17T13:18:47.422Z,1.10
2019-01-17T13:21:20.143Z,1.20
2019-01-17T13:23:52.805Z,0.90
2019-01-17T13:26:24.351Z,1.60
2019-01-17T13:28:56.271Z,1.43
2019-01-17T13:31:28.253Z,1.57
2019-01-17T13:33:59.709Z,1.93
2019-01-17T13:36:32.815Z,2.07
2019-01-17T13:39:06.473Z,2.07
2019-01-17T13:41:38.241Z,2.27
2019-01-17T13:44:10.109Z,1.97
2019-01-17T13:46:42.081Z,2.20
2019-01-17T13:49:14.861Z,1.73
2019-01-17T13:51:46.627Z,2.40
2019-01-17T13:54:18.335Z,1.90
2019-01-17T13:56:49.973Z,2.10
2019-01-17T13:59:21.651Z,1.93
2019-01-17T14:01:56.214Z,1.80
2019-01-17T14:04:30.572Z,2.00
2019-01-17T14:07:02.455Z,2.37
2019-01-17T14:09:34.163Z,2.00
2019-01-17T14:12:05.738Z,1.90
2019-01-17T14:14:39.061Z,2.20
2019-01-17T14:17:10.383Z,2.10
2019-01-17T14:19:42.301Z,2.33
2019-01-17T14:22:16.806Z,2.00
2019-01-17T14:24:48.201Z,2.07
2019-01-17T14:27:20.024Z,2.20
2019-01-17T14:29:51.921Z,2.10
2019-01-17T14:32:23.734Z,2.43
2019-01-17T14:34:55.278Z,1.70
2019-01-17T14:37:26.622Z,2.03
2019-01-17T14:39:57.982Z,1.70
2019-01-17T14:42:29.636Z,1.60
2019-01-17T14:45:01.050Z,1.70
2019-01-17T14:47:33.054Z,1.90
2019-01-17T14:50:06.131Z,1.90
2019-01-17T14:52:39.500Z,1.80
2019-01-17T14:55:11.358Z,3.13
2019-01-17T14:57:43.478Z,2.00
2019-01-17T15:00:17.838Z,1.90
2019-01-17T15:02:49.512Z,1.87
2019-01-17T15:05:20.916Z,2.20
2019-01-17T15:07:52.662Z,1.77
2019-01-17T15:10:27.289Z,1.73
2019-01-17T15:12:59.713Z,1.90
2019-01-17T15:15:32.212Z,2.93
2019-01-17T15:18:03.952Z,2.47
2019-01-17T15:20:35.873Z,3.63
2019-01-17T15:23:09.092Z,2.80
2019-01-17T15:25:41.189Z,2.20
2019-01-17T15:28:12.805Z,2.60
2019-01-17T15:30:44.753Z,2.47
2019-01-17T15:33:16.656Z,2.30
2019-01-17T15:35:48.958Z,2.53
2019-01-17T15:38:20.597Z,2.50
2019-01-17T15:40:52.151Z,1.90
2019-01-17T15:43:24.771Z,1.90
2019-01-17T15:45:57.789Z,2.10
2019-01-17T15:48:30.112Z,2.10
2019-01-17T15:51:01.856Z,2.23
2019-01-17T15:53:33.482Z,2.33
2019-01-17T15:56:05.078Z,2.27
2019-01-17T15:58:38.367Z,1.87
2019-01-17T16:01:09.985Z,3.17
2019-01-17T16:03:41.543Z,2.30
2019-01-17T16:06:13.346Z,1.40
2019-01-17T16:08:46.104Z,1.60
2019-01-17T16:11:18.045Z,1.30
2019-01-17T16:13:49.975Z,1.87
2019-01-17T16:16:22.591Z,1.73
2019-01-17T16:18:53.916Z,2.67
2019-01-17T16:21:26.927Z,1.90
2019-01-17T16:23:59.186Z,2.43
2019-01-17T16:26:30.872Z,1.80
2019-01-17T16:29:02.297Z,1.60
2019-01-17T16:31:33.781Z,1.67
2019-01-17T16:34:05.481Z,2.30
2019-01-17T16:36:37.496Z,1.67
2019-01-17T16:39:11.496Z,1.90
2019-01-17T16:41:43.062Z,1.70
2019-01-17T16:44:14.780Z,1.60
2019-01-17T16:46:46.366Z,1.70
2019-01-17T16:49:18.414Z,1.93
2019-01-17T16:51:50.150Z,1.30
2019-01-17T16:54:21.679Z,1.50
2019-01-17T16:56:53.556Z,1.53
2019-01-17T16:59:25.977Z,1.97
2019-01-17T17:01:57.392Z,2.00
2019-01-17T17:04:29.513Z,1.93
2019-01-17T17:07:01.200Z,2.20
2019-01-17T17:09:34.308Z,2.30
2019-01-17T17:12:06.264Z,2.20
2019-01-17T17:14:39.579Z,2.87
2019-01-17T17:17:11.164Z,2.77
2019-01-17T17:19:42.540Z,5.07
2019-01-17T17:22:16.778Z,4.50
2019-01-17T17:24:49.535Z,3.03
2019-01-17T17:27:22.018Z,5.33
2019-01-17T17:29:53.618Z,7.97
2019-01-17T17:32:26.570Z,13.50
2019-01-17T17:34:58.399Z,7.73
2019-01-17T17:37:30.447Z,2.23
2019-01-17T17:40:02.468Z,2.40
2019-01-17T17:42:34.459Z,6.27
2019-01-17T17:45:06.872Z,2.20
2019-01-17T17:47:42.092Z,2.27
2019-01-17T17:50:14.665Z,2.20
2019-01-17T17:52:46.572Z,1.70
2019-01-17T17:55:19.904Z,2.47
2019-01-17T17:57:51.396Z,2.00
2019-01-17T18:00:55.383Z,2.10
2019-01-17T18:03:26.863Z,1.60
2019-01-17T18:05:59.687Z,1.77
2019-01-17T18:08:31.485Z,2.13
2019-01-17T18:11:03.261Z,2.30
2019-01-17T18:13:35.091Z,2.40
2019-01-17T18:16:06.955Z,2.10
2019-01-17T18:18:38.802Z,2.10
2019-01-17T18:21:11.526Z,2.07
2019-01-17T18:23:44.469Z,2.20
2019-01-17T18:26:16.093Z,2.20
2019-01-17T18:28:47.699Z,2.30
2019-01-17T18:31:19.329Z,2.00
2019-01-17T18:33:55.297Z,2.60
2019-01-17T18:36:28.495Z,2.27
2019-01-17T18:39:01.765Z,2.60
2019-01-17T18:41:33.963Z,2.50
2019-01-17T18:44:05.686Z,2.40
2019-01-17T18:46:37.126Z,2.20
2019-01-17T18:49:08.677Z,2.30
2019-01-17T18:51:40.258Z,2.30
2019-01-17T18:54:11.837Z,1.77
2019-01-17T18:56:43.479Z,3.00
2019-01-17T18:59:17.885Z,2.33
2019-01-17T19:01:49.397Z,2.03
2019-01-17T19:04:21.107Z,1.70
2019-01-17T19:06:52.208Z,1.50
2019-01-17T19:09:24.825Z,1.70
2019-01-17T19:12:14.590Z,1.20
2019-01-17T19:14:46.179Z,1.20
2019-01-17T19:17:17.724Z,1.30
2019-01-17T19:19:49.430Z,1.30
2019-01-17T19:22:21.418Z,1.30
2019-01-17T19:24:53.297Z,1.67
2019-01-17T19:27:24.774Z,1.30
2019-01-17T19:29:56.658Z,1.40
2019-01-17T19:32:30.323Z,1.83
2019-01-17T19:35:02.257Z,1.97
2019-01-17T19:37:33.579Z,1.77
2019-01-17T19:40:06.507Z,2.17
2019-01-17T19:42:39.192Z,2.50
2019-01-17T19:45:12.520Z,1.97
2019-01-17T19:47:44.166Z,2.77
2019-01-17T19:50:27.864Z,2.37
2019-01-17T19:53:01.866Z,2.47
2019-01-17T19:55:35.108Z,2.20
2019-01-17T19:58:06.676Z,2.73
2019-01-17T20:00:38.446Z,2.37
2019-01-17T20:03:10.189Z,2.43
2019-01-17T20:05:42.208Z,2.20
2019-01-17T20:08:13.858Z,1.80
2019-01-17T20:10:45.410Z,1.73
2019-01-17T20:13:20.906Z,1.50
2019-01-17T20:15:52.518Z,1.23
2019-01-17T20:18:26.141Z,1.17
2019-01-17T20:20:58.208Z,1.13
2019-01-17T20:23:29.653Z,1.30
2019-01-17T20:26:03.294Z,1.60
2019-01-17T20:28:35.815Z,1.67
2019-01-17T20:31:07.513Z,1.50
2019-01-17T20:33:39.255Z,1.30
2019-01-17T20:36:10.834Z,1.50
2019-01-17T20:38:44.777Z,1.30
2019-01-17T20:41:16.625Z,1.60
2019-01-17T20:43:48.024Z,1.50
2019-01-17T20:46:21.495Z,1.40
2019-01-17T20:48:53.353Z,2.03
2019-01-17T20:51:25.256Z,1.50
2019-01-17T20:53:57.035Z,1.30
2019-01-17T20:56:32.069Z,1.00
2019-01-17T20:59:04.581Z,1.30
2019-01-17T21:02:22.802Z,1.07
2019-01-17T21:04:57.111Z,1.10
2019-01-17T21:07:28.622Z,1.20
2019-01-17T21:10:00.594Z,1.23
2019-01-17T21:12:31.979Z,1.03
2019-01-17T21:15:03.993Z,0.60
2019-01-17T21:17:35.553Z,0.40
2019-01-17T21:20:07.989Z,0.40
2019-01-17T21:22:40.501Z,0.70
2019-01-17T21:25:14.258Z,0.80
2019-01-17T21:27:46.001Z,0.90
2019-01-17T21:30:25.507Z,0.90
2019-01-17T21:32:59.482Z,0.67
2019-01-17T21:35:35.391Z,0.90
2019-01-17T21:38:07.977Z,1.00
2019-01-17T21:40:40.011Z,1.43
2019-01-17T21:43:12.631Z,2.07
2019-01-17T21:45:44.506Z,1.43
2019-01-17T21:48:17.039Z,1.90
2019-01-17T21:50:49.520Z,2.20
2019-01-17T21:53:20.987Z,2.30
2019-01-17T21:55:52.891Z,2.10
2019-01-17T21:58:24.856Z,1.33
2019-01-17T22:00:58.168Z,2.00
2019-01-17T22:03:30.062Z,1.87
2019-01-17T22:06:01.980Z,1.63
2019-01-17T22:08:33.788Z,2.03
2019-01-17T22:11:05.227Z,2.50
2019-01-17T22:13:36.715Z,2.57
2019-01-17T22:16:08.095Z,2.60
2019-01-17T22:18:39.538Z,2.20
2019-01-17T22:21:12.384Z,3.23
2019-01-17T22:23:43.981Z,2.57
2019-01-17T22:26:20.995Z,3.00
2019-01-17T22:28:49.346Z,3.37
2019-01-17T22:31:22.402Z,2.60
2019-01-17T22:33:56.356Z,3.40
2019-01-17T22:36:28.111Z,3.07
2019-01-17T22:38:59.630Z,3.23
2019-01-17T22:41:32.539Z,3.43
2019-01-17T22:44:04.917Z,2.97
2019-01-17T22:46:36.838Z,2.57
2019-01-17T22:49:08.707Z,2.97
2019-01-17T22:51:41.614Z,3.10
2019-01-17T22:54:13.137Z,2.50
2019-01-17T22:56:44.697Z,1.57
2019-01-17T22:59:16.275Z,1.80
2019-01-17T23:01:47.815Z,1.53
2019-01-17T23:04:19.537Z,1.60
2019-01-17T23:06:50.944Z,2.03
2019-01-17T23:09:24.266Z,1.93
2019-01-17T23:11:55.898Z,2.00
2019-01-17T23:14:27.566Z,2.00
2019-01-17T23:16:59.995Z,1.67
2019-01-17T23:19:31.425Z,1.50
2019-01-17T23:22:03.007Z,1.23
2019-01-17T23:24:34.939Z,1.60
2019-01-17T23:27:06.466Z,2.10
2019-01-17T23:29:38.015Z,2.10
2019-01-17T23:32:09.465Z,2.03
2019-01-17T23:34:41.177Z,2.13
2019-01-17T23:37:12.697Z,1.63
2019-01-17T23:39:45.453Z,1.80
2019-01-17T23:42:17.089Z,2.93
2019-01-17T23:44:48.852Z,1.60
2019-01-17T23:47:20.419Z,1.43
2019-01-17T23:49:55.063Z,1.90
2019-01-17T23:52:26.576Z,2.00
2019-01-17T23:54:57.943Z,1.77
2019-01-17T23:57:29.321Z,2.07
